sensor_id;sensor_type;location;lat;lon;timestamp;temperature;humidity
40556;DHT22;26250;45.422;11.100;2023-06-10T00:01:44;24.50;89.70
40556;DHT22;26250;45.422;11.100;2023-06-10T00:04:16;24.60;89.50
40556;DHT22;26250;45.422;11.100;2023-06-10T00:06:44;24.50;89.80
40556;DHT22;26250;45.422;11.100;2023-06-10T00:09:11;24.40;90.00
40556;DHT22;26250;45.422;11.100;2023-06-10T00:11:38;24.40;90.10
40556;DHT22;26250;45.422;11.100;2023-06-10T00:14:05;24.40;90.30
40556;DHT22;26250;45.422;11.100;2023-06-10T00:16:33;24.20;90.40
40556;DHT22;26250;45.422;11.100;2023-06-10T00:19:01;24.10;90.70
40556;DHT22;26250;45.422;11.100;2023-06-10T00:21:33;24.10;90.80
40556;DHT22;26250;45.422;11.100;2023-06-10T00:24:08;23.90;91.10
40556;DHT22;26250;45.422;11.100;2023-06-10T00:26:39;24.10;90.80
40556;DHT22;26250;45.422;11.100;2023-06-10T00:29:07;24.20;90.30
40556;DHT22;26250;45.422;11.100;2023-06-10T00:31:37;24.30;90.10
40556;DHT22;26250;45.422;11.100;2023-06-10T00:34:07;24.20;90.10
40556;DHT22;26250;45.422;11.100;2023-06-10T00:36:34;24.00;90.30
40556;DHT22;26250;45.422;11.100;2023-06-10T00:39:02;24.10;90.60
40556;DHT22;26250;45.422;11.100;2023-06-10T00:41:31;24.00;90.70
40556;DHT22;26250;45.422;11.100;2023-06-10T00:43:58;24.10;90.50
40556;DHT22;26250;45.422;11.100;2023-06-10T00:46:26;24.20;90.70
40556;DHT22;26250;45.422;11.100;2023-06-10T00:48:55;24.10;90.90
40556;DHT22;26250;45.422;11.100;2023-06-10T00:51:22;23.90;91.00
40556;DHT22;26250;45.422;11.100;2023-06-10T00:53:49;23.90;90.80
40556;DHT22;26250;45.422;11.100;2023-06-10T00:56:17;24.00;90.20
40556;DHT22;26250;45.422;11.100;2023-06-10T00:58:44;24.00;90.10
40556;DHT22;26250;45.422;11.100;2023-06-10T01:01:11;24.10;89.20
40556;DHT22;26250;45.422;11.100;2023-06-10T01:03:42;24.00;88.90
40556;DHT22;26250;45.422;11.100;2023-06-10T01:08:56;23.90;89.20
40556;DHT22;26250;45.422;11.100;2023-06-10T01:11:35;23.90;89.40
40556;DHT22;26250;45.422;11.100;2023-06-10T01:14:04;23.70;90.00
40556;DHT22;26250;45.422;11.100;2023-06-10T01:16:32;23.80;89.00
40556;DHT22;26250;45.422;11.100;2023-06-10T01:18:59;23.80;88.90
40556;DHT22;26250;45.422;11.100;2023-06-10T01:21:27;23.80;89.00
40556;DHT22;26250;45.422;11.100;2023-06-10T01:23:54;23.90;88.60
40556;DHT22;26250;45.422;11.100;2023-06-10T01:26:28;23.90;88.00
40556;DHT22;26250;45.422;11.100;2023-06-10T01:29:04;24.00;87.40
40556;DHT22;26250;45.422;11.100;2023-06-10T01:31:52;23.90;87.00
40556;DHT22;26250;45.422;11.100;2023-06-10T01:34:24;23.90;86.80
40556;DHT22;26250;45.422;11.100;2023-06-10T01:36:52;23.80;86.60
40556;DHT22;26250;45.422;11.100;2023-06-10T01:39:22;23.70;87.20
40556;DHT22;26250;45.422;11.100;2023-06-10T01:41:52;23.60;86.90
40556;DHT22;26250;45.422;11.100;2023-06-10T01:44:22;23.70;87.50
40556;DHT22;26250;45.422;11.100;2023-06-10T01:46:49;23.80;87.50
40556;DHT22;26250;45.422;11.100;2023-06-10T01:49:17;23.70;88.80
40556;DHT22;26250;45.422;11.100;2023-06-10T01:51:46;23.70;89.60
40556;DHT22;26250;45.422;11.100;2023-06-10T01:54:13;23.80;89.70
40556;DHT22;26250;45.422;11.100;2023-06-10T01:56:40;23.70;90.20
40556;DHT22;26250;45.422;11.100;2023-06-10T01:59:07;23.50;90.20
40556;DHT22;26250;45.422;11.100;2023-06-10T02:01:34;23.40;90.40
40556;DHT22;26250;45.422;11.100;2023-06-10T02:04:01;23.40;90.70
40556;DHT22;26250;45.422;11.100;2023-06-10T02:06:31;23.50;90.20
40556;DHT22;26250;45.422;11.100;2023-06-10T02:08:58;23.60;89.70
40556;DHT22;26250;45.422;11.100;2023-06-10T02:11:28;23.60;88.60
40556;DHT22;26250;45.422;11.100;2023-06-10T02:13:55;23.50;89.10
40556;DHT22;26250;45.422;11.100;2023-06-10T02:16:22;23.60;89.30
40556;DHT22;26250;45.422;11.100;2023-06-10T02:18:49;23.70;89.20
40556;DHT22;26250;45.422;11.100;2023-06-10T02:21:16;23.70;89.60
40556;DHT22;26250;45.422;11.100;2023-06-10T02:23:43;23.70;89.80
40556;DHT22;26250;45.422;11.100;2023-06-10T02:26:10;23.70;89.90
40556;DHT22;26250;45.422;11.100;2023-06-10T02:28:37;23.60;90.10
40556;DHT22;26250;45.422;11.100;2023-06-10T02:31:04;23.40;90.50
40556;DHT22;26250;45.422;11.100;2023-06-10T02:33:31;23.40;90.60
40556;DHT22;26250;45.422;11.100;2023-06-10T02:35:58;23.40;90.50
40556;DHT22;26250;45.422;11.100;2023-06-10T02:38:26;23.40;90.40
40556;DHT22;26250;45.422;11.100;2023-06-10T02:40:54;23.30;90.50
40556;DHT22;26250;45.422;11.100;2023-06-10T02:43:22;23.00;90.90
40556;DHT22;26250;45.422;11.100;2023-06-10T02:45:49;23.00;90.60
40556;DHT22;26250;45.422;11.100;2023-06-10T02:48:17;23.00;90.50
40556;DHT22;26250;45.422;11.100;2023-06-10T02:50:46;23.20;90.20
40556;DHT22;26250;45.422;11.100;2023-06-10T02:53:27;23.20;90.20
40556;DHT22;26250;45.422;11.100;2023-06-10T02:56:03;23.30;90.00
40556;DHT22;26250;45.422;11.100;2023-06-10T02:58:31;23.30;88.80
40556;DHT22;26250;45.422;11.100;2023-06-10T03:00:58;23.20;88.40
40556;DHT22;26250;45.422;11.100;2023-06-10T03:03:28;23.20;88.40
40556;DHT22;26250;45.422;11.100;2023-06-10T03:06:03;23.20;89.10
40556;DHT22;26250;45.422;11.100;2023-06-10T03:08:32;23.10;88.60
40556;DHT22;26250;45.422;11.100;2023-06-10T03:11:03;23.10;89.80
40556;DHT22;26250;45.422;11.100;2023-06-10T03:13:32;23.10;90.20
40556;DHT22;26250;45.422;11.100;2023-06-10T03:15:59;23.10;90.20
40556;DHT22;26250;45.422;11.100;2023-06-10T03:18:28;23.00;90.70
40556;DHT22;26250;45.422;11.100;2023-06-10T03:20:55;23.00;90.90
40556;DHT22;26250;45.422;11.100;2023-06-10T03:23:24;22.90;91.10
40556;DHT22;26250;45.422;11.100;2023-06-10T03:25:51;22.90;91.00
40556;DHT22;26250;45.422;11.100;2023-06-10T03:28:19;23.00;90.60
40556;DHT22;26250;45.422;11.100;2023-06-10T03:30:46;23.10;90.20
40556;DHT22;26250;45.422;11.100;2023-06-10T03:33:14;23.10;89.80
40556;DHT22;26250;45.422;11.100;2023-06-10T03:35:42;23.20;90.00
40556;DHT22;26250;45.422;11.100;2023-06-10T03:38:11;23.10;90.50
40556;DHT22;26250;45.422;11.100;2023-06-10T03:40:38;23.00;90.80
40556;DHT22;26250;45.422;11.100;2023-06-10T03:43:07;23.10;90.60
40556;DHT22;26250;45.422;11.100;2023-06-10T03:45:34;23.10;90.60
40556;DHT22;26250;45.422;11.100;2023-06-10T03:48:03;23.20;90.60
40556;DHT22;26250;45.422;11.100;2023-06-10T03:50:40;23.00;90.80
40556;DHT22;26250;45.422;11.100;2023-06-10T03:53:07;22.90;91.00
40556;DHT22;26250;45.422;11.100;2023-06-10T03:55:35;22.70;91.50
40556;DHT22;26250;45.422;11.100;2023-06-10T03:58:04;22.70;91.80
40556;DHT22;26250;45.422;11.100;2023-06-10T04:00:31;22.60;91.70
40556;DHT22;26250;45.422;11.100;2023-06-10T04:03:08;22.80;91.60
40556;DHT22;26250;45.422;11.100;2023-06-10T04:05:41;22.80;91.00
40556;DHT22;26250;45.422;11.100;2023-06-10T04:08:08;22.80;90.80
40556;DHT22;26250;45.422;11.100;2023-06-10T04:10:35;22.80;90.90
40556;DHT22;26250;45.422;11.100;2023-06-10T04:13:03;22.90;90.70
40556;DHT22;26250;45.422;11.100;2023-06-10T04:15:35;22.90;90.90
40556;DHT22;26250;45.422;11.100;2023-06-10T04:18:07;22.80;91.50
40556;DHT22;26250;45.422;11.100;2023-06-10T04:20:35;22.60;91.80
40556;DHT22;26250;45.422;11.100;2023-06-10T04:23:03;22.70;91.80
40556;DHT22;26250;45.422;11.100;2023-06-10T04:25:31;22.80;91.60
40556;DHT22;26250;45.422;11.100;2023-06-10T04:27:58;22.70;91.50
40556;DHT22;26250;45.422;11.100;2023-06-10T04:30:25;22.70;91.50
40556;DHT22;26250;45.422;11.100;2023-06-10T04:32:52;22.80;91.50
40556;DHT22;26250;45.422;11.100;2023-06-10T04:35:19;22.90;91.30
40556;DHT22;26250;45.422;11.100;2023-06-10T04:37:47;22.90;91.20
40556;DHT22;26250;45.422;11.100;2023-06-10T04:40:15;22.90;90.90
40556;DHT22;26250;45.422;11.100;2023-06-10T04:42:43;22.90;91.00
40556;DHT22;26250;45.422;11.100;2023-06-10T04:45:12;22.80;91.10
40556;DHT22;26250;45.422;11.100;2023-06-10T04:47:40;22.80;91.20
40556;DHT22;26250;45.422;11.100;2023-06-10T04:50:07;22.90;90.90
40556;DHT22;26250;45.422;11.100;2023-06-10T04:52:34;22.80;91.10
40556;DHT22;26250;45.422;11.100;2023-06-10T04:55:01;22.80;91.10
40556;DHT22;26250;45.422;11.100;2023-06-10T04:57:29;22.70;91.20
40556;DHT22;26250;45.422;11.100;2023-06-10T04:59:56;22.80;91.20
40556;DHT22;26250;45.422;11.100;2023-06-10T05:02:23;22.90;91.10
40556;DHT22;26250;45.422;11.100;2023-06-10T05:04:51;22.90;91.30
40556;DHT22;26250;45.422;11.100;2023-06-10T05:07:18;23.00;91.30
40556;DHT22;26250;45.422;11.100;2023-06-10T05:09:44;23.10;90.80
40556;DHT22;26250;45.422;11.100;2023-06-10T05:12:11;23.00;91.10
40556;DHT22;26250;45.422;11.100;2023-06-10T05:14:38;23.00;90.90
40556;DHT22;26250;45.422;11.100;2023-06-10T05:17:06;23.00;91.10
40556;DHT22;26250;45.422;11.100;2023-06-10T05:19:33;23.00;91.20
40556;DHT22;26250;45.422;11.100;2023-06-10T05:21:59;23.00;91.00
40556;DHT22;26250;45.422;11.100;2023-06-10T05:24:27;22.90;90.90
40556;DHT22;26250;45.422;11.100;2023-06-10T05:26:55;23.00;90.80
40556;DHT22;26250;45.422;11.100;2023-06-10T05:29:22;23.10;91.00
40556;DHT22;26250;45.422;11.100;2023-06-10T05:31:49;23.10;91.10
40556;DHT22;26250;45.422;11.100;2023-06-10T05:34:16;23.20;91.00
40556;DHT22;26250;45.422;11.100;2023-06-10T05:36:44;23.20;90.90
40556;DHT22;26250;45.422;11.100;2023-06-10T05:39:10;23.00;91.00
40556;DHT22;26250;45.422;11.100;2023-06-10T05:41:38;23.00;90.90
40556;DHT22;26250;45.422;11.100;2023-06-10T05:44:04;23.10;91.00
40556;DHT22;26250;45.422;11.100;2023-06-10T05:46:31;23.20;91.00
40556;DHT22;26250;45.422;11.100;2023-06-10T05:48:59;23.30;90.80
40556;DHT22;26250;45.422;11.100;2023-06-10T05:51:26;23.40;90.10
40556;DHT22;26250;45.422;11.100;2023-06-10T05:53:54;23.20;90.30
40556;DHT22;26250;45.422;11.100;2023-06-10T05:56:21;23.20;90.60
40556;DHT22;26250;45.422;11.100;2023-06-10T05:58:49;23.20;90.90
40556;DHT22;26250;45.422;11.100;2023-06-10T06:01:16;23.30;90.70
40556;DHT22;26250;45.422;11.100;2023-06-10T06:03:45;23.40;90.80
40556;DHT22;26250;45.422;11.100;2023-06-10T06:06:12;23.60;90.70
40556;DHT22;26250;45.422;11.100;2023-06-10T06:08:39;23.60;89.70
40556;DHT22;26250;45.422;11.100;2023-06-10T06:11:06;23.60;89.30
40556;DHT22;26250;45.422;11.100;2023-06-10T06:13:33;23.40;89.90
40556;DHT22;26250;45.422;11.100;2023-06-10T06:16:00;23.50;88.50
40556;DHT22;26250;45.422;11.100;2023-06-10T06:18:27;23.50;88.40
40556;DHT22;26250;45.422;11.100;2023-06-10T06:20:54;23.60;88.80
40556;DHT22;26250;45.422;11.100;2023-06-10T06:23:22;23.70;89.60
40556;DHT22;26250;45.422;11.100;2023-06-10T06:25:49;23.90;89.80
40556;DHT22;26250;45.422;11.100;2023-06-10T06:28:16;24.00;89.70
40556;DHT22;26250;45.422;11.100;2023-06-10T06:30:43;24.10;89.70
40556;DHT22;26250;45.422;11.100;2023-06-10T06:33:10;24.20;89.60
40556;DHT22;26250;45.422;11.100;2023-06-10T06:35:37;24.20;89.40
40556;DHT22;26250;45.422;11.100;2023-06-10T06:38:05;24.10;89.60
40556;DHT22;26250;45.422;11.100;2023-06-10T06:40:32;23.90;88.90
40556;DHT22;26250;45.422;11.100;2023-06-10T06:42:59;23.80;89.00
40556;DHT22;26250;45.422;11.100;2023-06-10T06:45:41;23.70;88.40
40556;DHT22;26250;45.422;11.100;2023-06-10T06:48:08;23.90;89.00
40556;DHT22;26250;45.422;11.100;2023-06-10T06:50:35;24.10;88.80
40556;DHT22;26250;45.422;11.100;2023-06-10T06:53:02;24.20;88.80
40556;DHT22;26250;45.422;11.100;2023-06-10T06:55:29;24.40;88.10
40556;DHT22;26250;45.422;11.100;2023-06-10T06:57:56;24.40;88.60
40556;DHT22;26250;45.422;11.100;2023-06-10T07:00:23;24.50;87.50
40556;DHT22;26250;45.422;11.100;2023-06-10T07:02:50;24.50;85.50
40556;DHT22;26250;45.422;11.100;2023-06-10T07:05:17;24.50;85.00
40556;DHT22;26250;45.422;11.100;2023-06-10T07:07:44;24.50;85.80
40556;DHT22;26250;45.422;11.100;2023-06-10T07:10:11;24.50;85.70
40556;DHT22;26250;45.422;11.100;2023-06-10T07:12:38;24.60;85.70
40556;DHT22;26250;45.422;11.100;2023-06-10T07:15:05;24.70;85.70
40556;DHT22;26250;45.422;11.100;2023-06-10T07:17:33;24.60;86.30
40556;DHT22;26250;45.422;11.100;2023-06-10T07:20:01;24.70;85.80
40556;DHT22;26250;45.422;11.100;2023-06-10T07:22:28;24.80;86.40
40556;DHT22;26250;45.422;11.100;2023-06-10T07:24:55;24.80;85.80
40556;DHT22;26250;45.422;11.100;2023-06-10T07:27:22;24.80;85.60
40556;DHT22;26250;45.422;11.100;2023-06-10T07:29:50;24.90;85.70
40556;DHT22;26250;45.422;11.100;2023-06-10T07:32:19;24.90;86.20
40556;DHT22;26250;45.422;11.100;2023-06-10T07:34:49;25.00;85.80
40556;DHT22;26250;45.422;11.100;2023-06-10T07:37:16;25.00;85.60
40556;DHT22;26250;45.422;11.100;2023-06-10T07:39:43;25.10;85.40
40556;DHT22;26250;45.422;11.100;2023-06-10T07:42:11;25.10;86.40
40556;DHT22;26250;45.422;11.100;2023-06-10T07:44:38;25.10;86.10
40556;DHT22;26250;45.422;11.100;2023-06-10T07:47:05;25.10;85.80
40556;DHT22;26250;45.422;11.100;2023-06-10T07:49:32;25.10;86.10
40556;DHT22;26250;45.422;11.100;2023-06-10T07:52:00;25.20;86.60
40556;DHT22;26250;45.422;11.100;2023-06-10T07:54:26;25.20;86.70
40556;DHT22;26250;45.422;11.100;2023-06-10T07:56:56;25.20;86.90
40556;DHT22;26250;45.422;11.100;2023-06-10T07:59:22;25.00;87.50
40556;DHT22;26250;45.422;11.100;2023-06-10T08:01:49;24.90;88.30
40556;DHT22;26250;45.422;11.100;2023-06-10T08:04:16;24.90;88.40
40556;DHT22;26250;45.422;11.100;2023-06-10T08:06:44;25.10;88.00
40556;DHT22;26250;45.422;11.100;2023-06-10T08:09:11;25.10;87.40
40556;DHT22;26250;45.422;11.100;2023-06-10T08:11:38;25.10;87.80
40556;DHT22;26250;45.422;11.100;2023-06-10T08:14:05;25.00;88.40
40556;DHT22;26250;45.422;11.100;2023-06-10T08:16:32;25.00;88.70
40556;DHT22;26250;45.422;11.100;2023-06-10T08:18:59;25.00;88.90
40556;DHT22;26250;45.422;11.100;2023-06-10T08:21:25;25.00;89.80
40556;DHT22;26250;45.422;11.100;2023-06-10T08:23:56;25.10;89.50
40556;DHT22;26250;45.422;11.100;2023-06-10T08:26:23;25.20;89.20
40556;DHT22;26250;45.422;11.100;2023-06-10T08:28:51;25.30;89.00
40556;DHT22;26250;45.422;11.100;2023-06-10T08:31:18;25.30;89.30
40556;DHT22;26250;45.422;11.100;2023-06-10T08:33:45;25.30;90.00
40556;DHT22;26250;45.422;11.100;2023-06-10T08:36:12;25.10;90.10
40556;DHT22;26250;45.422;11.100;2023-06-10T08:38:39;25.20;90.00
40556;DHT22;26250;45.422;11.100;2023-06-10T08:41:06;25.00;90.40
40556;DHT22;26250;45.422;11.100;2023-06-10T08:43:46;24.90;90.60
40556;DHT22;26250;45.422;11.100;2023-06-10T08:46:15;25.00;90.70
40556;DHT22;26250;45.422;11.100;2023-06-10T08:48:43;25.10;90.60
40556;DHT22;26250;45.422;11.100;2023-06-10T08:51:11;25.10;90.70
40556;DHT22;26250;45.422;11.100;2023-06-10T08:53:56;25.10;90.40
40556;DHT22;26250;45.422;11.100;2023-06-10T08:56:28;25.20;90.20
40556;DHT22;26250;45.422;11.100;2023-06-10T08:58:57;25.30;89.10
40556;DHT22;26250;45.422;11.100;2023-06-10T09:01:26;25.40;87.50
40556;DHT22;26250;45.422;11.100;2023-06-10T09:03:57;25.40;86.70
40556;DHT22;26250;45.422;11.100;2023-06-10T09:06:25;25.50;87.10
40556;DHT22;26250;45.422;11.100;2023-06-10T09:08:52;25.60;86.20
40556;DHT22;26250;45.422;11.100;2023-06-10T09:11:19;25.50;87.10
40556;DHT22;26250;45.422;11.100;2023-06-10T09:13:47;25.50;87.00
40556;DHT22;26250;45.422;11.100;2023-06-10T09:16:14;25.50;86.70
40556;DHT22;26250;45.422;11.100;2023-06-10T09:18:42;25.60;86.80
40556;DHT22;26250;45.422;11.100;2023-06-10T09:21:09;25.60;86.20
40556;DHT22;26250;45.422;11.100;2023-06-10T09:23:39;25.70;86.40
40556;DHT22;26250;45.422;11.100;2023-06-10T09:26:09;25.70;86.80
40556;DHT22;26250;45.422;11.100;2023-06-10T09:28:37;25.70;85.20
40556;DHT22;26250;45.422;11.100;2023-06-10T09:31:06;25.80;85.50
40556;DHT22;26250;45.422;11.100;2023-06-10T09:33:40;25.80;85.00
40556;DHT22;26250;45.422;11.100;2023-06-10T09:36:07;25.90;85.20
40556;DHT22;26250;45.422;11.100;2023-06-10T09:38:34;25.90;85.30
40556;DHT22;26250;45.422;11.100;2023-06-10T09:41:03;26.00;84.60
40556;DHT22;26250;45.422;11.100;2023-06-10T09:46:14;26.10;83.10
40556;DHT22;26250;45.422;11.100;2023-06-10T09:48:43;26.20;82.20
40556;DHT22;26250;45.422;11.100;2023-06-10T09:51:13;26.30;82.10
40556;DHT22;26250;45.422;11.100;2023-06-10T09:53:41;26.20;82.70
40556;DHT22;26250;45.422;11.100;2023-06-10T09:56:08;26.20;81.80
40556;DHT22;26250;45.422;11.100;2023-06-10T09:58:38;26.20;80.60
40556;DHT22;26250;45.422;11.100;2023-06-10T10:01:06;26.20;80.10
40556;DHT22;26250;45.422;11.100;2023-06-10T10:03:46;26.20;80.10
40556;DHT22;26250;45.422;11.100;2023-06-10T10:06:18;26.10;78.20
40556;DHT22;26250;45.422;11.100;2023-06-10T10:08:49;26.20;78.90
40556;DHT22;26250;45.422;11.100;2023-06-10T10:11:18;26.20;78.30
40556;DHT22;26250;45.422;11.100;2023-06-10T10:13:48;26.30;78.20
40556;DHT22;26250;45.422;11.100;2023-06-10T10:16:19;26.20;78.10
40556;DHT22;26250;45.422;11.100;2023-06-10T10:18:54;26.30;78.60
40556;DHT22;26250;45.422;11.100;2023-06-10T10:21:32;26.30;79.20
40556;DHT22;26250;45.422;11.100;2023-06-10T10:24:09;26.30;79.40
40556;DHT22;26250;45.422;11.100;2023-06-10T10:26:39;26.30;78.90
40556;DHT22;26250;45.422;11.100;2023-06-10T10:31:56;26.30;77.80
40556;DHT22;26250;45.422;11.100;2023-06-10T10:34:41;26.40;77.90
40556;DHT22;26250;45.422;11.100;2023-06-10T10:37:10;26.40;77.90
40556;DHT22;26250;45.422;11.100;2023-06-10T10:39:37;26.40;78.90
40556;DHT22;26250;45.422;11.100;2023-06-10T10:42:05;26.40;76.10
40556;DHT22;26250;45.422;11.100;2023-06-10T10:44:38;26.40;76.80
40556;DHT22;26250;45.422;11.100;2023-06-10T10:47:08;26.40;75.90
40556;DHT22;26250;45.422;11.100;2023-06-10T10:49:37;26.40;76.20
40556;DHT22;26250;45.422;11.100;2023-06-10T10:52:04;26.50;76.60
40556;DHT22;26250;45.422;11.100;2023-06-10T10:54:35;26.50;76.50
40556;DHT22;26250;45.422;11.100;2023-06-10T10:57:22;26.50;77.20
40556;DHT22;26250;45.422;11.100;2023-06-10T10:59:55;26.60;76.10
40556;DHT22;26250;45.422;11.100;2023-06-10T11:02:42;26.60;75.00
40556;DHT22;26250;45.422;11.100;2023-06-10T11:05:13;26.70;75.60
40556;DHT22;26250;45.422;11.100;2023-06-10T11:07:52;26.80;75.70
40556;DHT22;26250;45.422;11.100;2023-06-10T11:10:38;26.90;75.40
40556;DHT22;26250;45.422;11.100;2023-06-10T11:13:18;26.90;75.40
40556;DHT22;26250;45.422;11.100;2023-06-10T11:15:47;26.90;76.40
40556;DHT22;26250;45.422;11.100;2023-06-10T11:23:42;27.10;75.90
40556;DHT22;26250;45.422;11.100;2023-06-10T11:31:32;27.10;75.50
40556;DHT22;26250;45.422;11.100;2023-06-10T11:34:04;27.10;76.20
40556;DHT22;26250;45.422;11.100;2023-06-10T11:36:40;27.20;75.40
40556;DHT22;26250;45.422;11.100;2023-06-10T11:39:09;27.30;73.90
40556;DHT22;26250;45.422;11.100;2023-06-10T11:41:38;27.30;73.60
40556;DHT22;26250;45.422;11.100;2023-06-10T11:44:12;27.50;73.40
40556;DHT22;26250;45.422;11.100;2023-06-10T11:46:44;27.60;73.00
40556;DHT22;26250;45.422;11.100;2023-06-10T11:49:12;27.80;72.10
40556;DHT22;26250;45.422;11.100;2023-06-10T11:51:40;27.90;72.20
40556;DHT22;26250;45.422;11.100;2023-06-10T11:54:11;28.10;71.80
40556;DHT22;26250;45.422;11.100;2023-06-10T11:56:38;28.10;71.70
40556;DHT22;26250;45.422;11.100;2023-06-10T11:59:06;28.10;72.50
40556;DHT22;26250;45.422;11.100;2023-06-10T12:01:42;28.00;73.40
40556;DHT22;26250;45.422;11.100;2023-06-10T12:04:12;28.00;74.00
40556;DHT22;26250;45.422;11.100;2023-06-10T12:06:45;28.00;73.60
40556;DHT22;26250;45.422;11.100;2023-06-10T12:09:25;28.00;72.80
40556;DHT22;26250;45.422;11.100;2023-06-10T12:12:02;28.00;73.80
40556;DHT22;26250;45.422;11.100;2023-06-10T12:20:08;27.80;74.90
40556;DHT22;26250;45.422;11.100;2023-06-10T12:25:05;27.80;74.90
40556;DHT22;26250;45.422;11.100;2023-06-10T12:27:35;27.80;75.50
40556;DHT22;26250;45.422;11.100;2023-06-10T12:30:05;27.90;75.20
40556;DHT22;26250;45.422;11.100;2023-06-10T12:32:41;27.90;73.90
40556;DHT22;26250;45.422;11.100;2023-06-10T12:35:10;27.90;73.80
40556;DHT22;26250;45.422;11.100;2023-06-10T12:37:42;27.80;72.70
40556;DHT22;26250;45.422;11.100;2023-06-10T12:40:10;27.90;72.80
40556;DHT22;26250;45.422;11.100;2023-06-10T12:42:38;27.90;73.30
40556;DHT22;26250;45.422;11.100;2023-06-10T12:45:05;27.80;73.10
40556;DHT22;26250;45.422;11.100;2023-06-10T12:47:37;27.70;73.40
40556;DHT22;26250;45.422;11.100;2023-06-10T12:50:06;27.70;73.40
40556;DHT22;26250;45.422;11.100;2023-06-10T12:52:33;27.70;72.90
40556;DHT22;26250;45.422;11.100;2023-06-10T12:55:01;27.60;71.80
40556;DHT22;26250;45.422;11.100;2023-06-10T12:57:28;27.60;72.50
40556;DHT22;26250;45.422;11.100;2023-06-10T12:59:59;27.60;73.20
40556;DHT22;26250;45.422;11.100;2023-06-10T13:02:31;27.60;74.00
40556;DHT22;26250;45.422;11.100;2023-06-10T13:04:58;27.60;74.00
40556;DHT22;26250;45.422;11.100;2023-06-10T13:07:26;27.60;73.30
40556;DHT22;26250;45.422;11.100;2023-06-10T13:09:53;27.60;71.70
40556;DHT22;26250;45.422;11.100;2023-06-10T13:12:20;27.60;72.80
40556;DHT22;26250;45.422;11.100;2023-06-10T13:15:04;27.70;72.40
40556;DHT22;26250;45.422;11.100;2023-06-10T13:17:31;27.90;72.00
40556;DHT22;26250;45.422;11.100;2023-06-10T13:20:02;27.90;71.10
40556;DHT22;26250;45.422;11.100;2023-06-10T13:22:29;28.00;73.10
40556;DHT22;26250;45.422;11.100;2023-06-10T13:24:59;28.10;73.40
40556;DHT22;26250;45.422;11.100;2023-06-10T13:27:26;28.20;73.10
40556;DHT22;26250;45.422;11.100;2023-06-10T13:29:53;28.20;73.20
40556;DHT22;26250;45.422;11.100;2023-06-10T13:32:20;28.10;73.20
40556;DHT22;26250;45.422;11.100;2023-06-10T13:34:47;28.10;73.60
40556;DHT22;26250;45.422;11.100;2023-06-10T13:37:16;28.00;73.20
40556;DHT22;26250;45.422;11.100;2023-06-10T13:39:46;27.90;72.20
40556;DHT22;26250;45.422;11.100;2023-06-10T13:42:20;27.90;74.10
40556;DHT22;26250;45.422;11.100;2023-06-10T13:44:47;27.70;73.40
40556;DHT22;26250;45.422;11.100;2023-06-10T13:47:15;27.70;73.40
40556;DHT22;26250;45.422;11.100;2023-06-10T13:49:44;27.70;74.90
40556;DHT22;26250;45.422;11.100;2023-06-10T13:52:11;27.80;74.00
40556;DHT22;26250;45.422;11.100;2023-06-10T13:54:38;27.80;74.10
40556;DHT22;26250;45.422;11.100;2023-06-10T13:57:05;27.90;74.80
40556;DHT22;26250;45.422;11.100;2023-06-10T13:59:32;27.90;74.50
40556;DHT22;26250;45.422;11.100;2023-06-10T14:02:00;27.80;74.80
40556;DHT22;26250;45.422;11.100;2023-06-10T14:04:27;27.80;73.40
40556;DHT22;26250;45.422;11.100;2023-06-10T14:06:54;27.80;73.60
40556;DHT22;26250;45.422;11.100;2023-06-10T14:09:21;27.70;74.00
40556;DHT22;26250;45.422;11.100;2023-06-10T14:11:48;27.80;73.70
40556;DHT22;26250;45.422;11.100;2023-06-10T14:14:18;27.80;72.30
40556;DHT22;26250;45.422;11.100;2023-06-10T14:16:46;27.90;74.50
40556;DHT22;26250;45.422;11.100;2023-06-10T14:19:14;27.90;74.40
40556;DHT22;26250;45.422;11.100;2023-06-10T14:21:41;28.00;74.40
40556;DHT22;26250;45.422;11.100;2023-06-10T14:24:08;27.90;74.10
40556;DHT22;26250;45.422;11.100;2023-06-10T14:26:35;27.80;75.60
40556;DHT22;26250;45.422;11.100;2023-06-10T14:29:01;27.90;74.70
40556;DHT22;26250;45.422;11.100;2023-06-10T14:31:29;27.90;75.40
40556;DHT22;26250;45.422;11.100;2023-06-10T14:33:56;27.90;75.50
40556;DHT22;26250;45.422;11.100;2023-06-10T14:36:23;27.90;75.70
40556;DHT22;26250;45.422;11.100;2023-06-10T14:38:50;28.00;74.10
40556;DHT22;26250;45.422;11.100;2023-06-10T14:41:17;28.00;75.00
40556;DHT22;26250;45.422;11.100;2023-06-10T14:43:44;28.10;74.80
40556;DHT22;26250;45.422;11.100;2023-06-10T14:46:11;28.00;75.10
40556;DHT22;26250;45.422;11.100;2023-06-10T14:48:38;28.10;75.40
40556;DHT22;26250;45.422;11.100;2023-06-10T14:51:05;28.10;74.70
40556;DHT22;26250;45.422;11.100;2023-06-10T14:53:32;28.00;73.30
40556;DHT22;26250;45.422;11.100;2023-06-10T14:55:59;28.10;74.60
40556;DHT22;26250;45.422;11.100;2023-06-10T14:58:26;28.20;74.90
40556;DHT22;26250;45.422;11.100;2023-06-10T15:00:53;28.20;75.20
40556;DHT22;26250;45.422;11.100;2023-06-10T15:03:20;28.30;72.50
40556;DHT22;26250;45.422;11.100;2023-06-10T15:05:47;28.40;72.80
40556;DHT22;26250;45.422;11.100;2023-06-10T15:08:14;28.40;73.60
40556;DHT22;26250;45.422;11.100;2023-06-10T15:10:42;28.40;72.40
40556;DHT22;26250;45.422;11.100;2023-06-10T15:13:09;28.40;73.50
40556;DHT22;26250;45.422;11.100;2023-06-10T15:15:36;28.30;72.50
40556;DHT22;26250;45.422;11.100;2023-06-10T15:18:03;28.30;72.90
40556;DHT22;26250;45.422;11.100;2023-06-10T15:20:30;28.30;72.80
40556;DHT22;26250;45.422;11.100;2023-06-10T15:22:57;28.20;73.70
40556;DHT22;26250;45.422;11.100;2023-06-10T15:25:24;28.30;74.20
40556;DHT22;26250;45.422;11.100;2023-06-10T15:27:57;28.40;72.10
40556;DHT22;26250;45.422;11.100;2023-06-10T15:30:24;28.10;72.60
40556;DHT22;26250;45.422;11.100;2023-06-10T15:32:51;28.10;73.60
40556;DHT22;26250;45.422;11.100;2023-06-10T15:35:18;28.20;71.30
40556;DHT22;26250;45.422;11.100;2023-06-10T15:37:45;28.20;70.60
40556;DHT22;26250;45.422;11.100;2023-06-10T15:40:12;28.30;73.10
40556;DHT22;26250;45.422;11.100;2023-06-10T15:42:39;28.30;72.70
40556;DHT22;26250;45.422;11.100;2023-06-10T15:45:07;28.40;72.40
40556;DHT22;26250;45.422;11.100;2023-06-10T15:47:34;28.30;71.40
40556;DHT22;26250;45.422;11.100;2023-06-10T15:50:01;28.30;71.20
40556;DHT22;26250;45.422;11.100;2023-06-10T15:52:28;28.30;69.60